Conway, North Dakota
Current Conditions -  °F | °C
As of 11:58 PM on Wednesday 28 Jan 2015 (Local Time) from KRDR Reporting Station
Overcast Overcast  
Wind Chill: -12°   Ceiling: 1300
Heat Index: -5°   Visibility: 10mi
Dew Point: -7°   Wind: 15mph
Humidity: 84%   Direction: 340°NNW
Pressure: 30.13"   Gusts: NA
Location:  48.2362°N, 97.4515°W
Report Text: KRDR 290558Z AUTO 34013KT 10SM OVC013 M05/M07 A3013 RMK AO2 SLP221 60000 T10481071 11003 21048 400081048 52037
Loading
Personal Weather Stations






























Interactive Weather Map New forecast layout! Learn more

10-Day Weather Forecast

Advertisements
Track Severe Weather on mobile